Logo AVAMET
Benvolgut visitant, si us plau, ingressa Recuperar contrasenya

Ondara

Dades diàries. Acumulats / Últims 30 dies disponibles

Data Temperatura (°C) Humitat rel. (%) Pressió rel. (hPa) Vent (km/h) Precipitació
Mínima Mitjana Màxima Amplitud
tèrmica
Mínima Mitjana Màxima Mínima Mitjana Màxima Predom. Mitjana Ràfega
màxima
Total
(mm)
Índex-n
Mínima Mitjana Màxima Mínima Mitjana Màxima n
0 a 1
P0 max
mm 5'
Dades mensuals acumulades fins l'últim dia disponible
12/2019 10,3 11,0 11,7 12,9 13,6 15,7 18,3 8,0 52 84 97 999 1.010 1.020   4,4 29,6 106,7
Dades anuals acumulades fins l'últim dia disponible
2019 1,7 14,5 27,7 19,2 12,8 24,4 39,3 37,6 16 63 99 989 1.012 1.031   6,1 72,9 701,2
Últims 30 dies disponibles
06-12-2019 11,7     13,5     16,4 4,7 76 86 92 1.017 1.018 1.020 ONO 3,8 24,4 0,0
05-12-2019 11,0     13,2     17,1 6,1 72 86 92 1.005 1.012 1.017 SO 2,2 20,4 1,0
04-12-2019 10,8     12,1     14,0 3,2 72 88 97 999 1.002 1.005 OSO 5,6 29,6 20,2 0,26 1,00
03-12-2019 10,6     12,2     13,6 3,0 74 86 97 1.005 1.010 1.012 S 6,4 29,6 33,8 0,26 1,00
02-12-2019 11,6     13,0     14,9 3,3 78 88 96 1.007 1.009 1.012 SSO 4,5 29,6 51,7 0,34 3,00
01-12-2019 10,3     13,6     18,3 8,0 52 72 83 1.006 1.007 1.010 SSO 3,8 14,8 0,0
30-11-2019 12,2     16,5     23,3 11,1 48 69 84 1.010 1.013 1.016 S 3,0 16,6 0,0
29-11-2019 15,5     19,2     23,2 7,7 44 52 69 1.012 1.014 1.016 O 7,6 37,7 0,0
28-11-2019 14,5     17,5     22,7 8,2 40 52 71 1.009 1.011 1.013 OSO 7,4 51,8 0,0
27-11-2019 13,1     18,7     22,4 9,3 33 52 82 1.004 1.006 1.009 O 10,2 46,8 0,0
26-11-2019 13,7     18,3     24,3 10,6 39 59 82 1.005 1.008 1.011 OSO 5,4 41,3 0,0
25-11-2019 12,9     17,7     21,4 8,5 46 55 69 1.008 1.009 1.011 O 10,9 50,0 0,0
24-11-2019 13,7     15,3     17,7 4,0 37 41 47 1.003 1.007 1.009 O 15,9 64,8 0,0
23-11-2019 12,9     15,3     16,9 4,0 38 49 74 989 994 1.003 O 15,3 72,9 0,0
22-11-2019 9,6     13,8     17,7 8,1 62 79 90 990 998 1.004 SSO 7,7 44,4 1,2
21-11-2019 7,1     12,4     17,7 10,6 55 75 91 1.004 1.005 1.006 S 3,3 14,8 0,5
20-11-2019 6,1     11,4     17,2 11,1 42 64 86 1.005 1.007 1.011 SSO 4,0 25,9 1,0
19-11-2019 6,2     10,7     16,9 10,7 31 57 73 1.010 1.012 1.013 SO 5,1 20,4 0,0
18-11-2019 8,0     12,6     17,0 9,0 45 63 85 1.002 1.006 1.012 OSO 7,1 31,6 1,6
17-11-2019 10,1     14,0     18,2 8,1 34 44 77 1.005 1.008 1.010 O 9,8 46,3 1,8 0,36 0,50
16-11-2019 10,3     12,6     17,1 6,8 39 46 57 1.002 1.006 1.010 O 8,3 46,8 0,0
15-11-2019 9,1     12,7     16,0 6,9 36 47 64 997 999 1.002 O 9,1 42,6 0,0
14-11-2019 11,3     14,0     16,9 5,6 39 61 83 995 998 1.006 OSO 7,2 56,1 0,3
13-11-2019 11,6     15,3     20,4 8,8 40 68 88 1.001 1.004 1.007 OSO 6,7 40,7 3,6 0,12 0,30
12-11-2019 12,7     15,4     20,8 8,1 28 39 51 1.005 1.007 1.008 O 9,1 44,4 0,0
11-11-2019 11,4     14,4     18,0 6,6 35 40 49 1.006 1.008 1.010 ONO 10,9 42,6 0,0
10-11-2019 12,7     13,3     19,5 6,8 40 43 45 1.008 1.008 1.009 ONO 13,2 56,4 0,0
09-11-2019 13,7     15,8     19,5 5,8 29 35 39 1.012 1.013 1.015 O 15,2 56,4 0,0
08-11-2019 12,0     14,7     17,4 5,4 32 39 51 1.005 1.008 1.012 ONO 16,7 57,4 0,0
07-11-2019 12,8     17,6     22,4 9,6 22 45 61 1.003 1.005 1.009 OSO 8,4 38,9 0,0
Últims 13 mesos disponibles
11/2019 6,1 12,9 21,1 16,3 16,0 20,5 27,8 21,7 35 52 79 994 1.006 1.014 O 9,5 72,9 10,0
10/2019 10,7 15,7 19,4 20,5 16,6 26,0 32,5 21,8 39 67 84 1.004 1.012 1.017 SSO 4,9 61,8 74,8
09/2019 14,9 19,8 22,8 23,8 23,4 28,5 35,3 20,4 49 73 91 1.005 1.012 1.018 S 4,6 59,9 164,0
08/2019 19,0 22,3 27,5 27,1 27,6 32,3 38,5 19,5 47 66 76 1.005 1.010 1.015 S 5,1 45,0 37,9
07/2019 20,6 22,3 27,7 27,6 26,2 32,6 39,3 18,7 40 60 73 1.000 1.009 1.016 SSE 5,5 53,8 0,8
06/2019 13,1 17,8 22,6 23,3 22,4 28,5 36,6 23,5 36 60 78 1.004 1.010 1.017 SSE 6,1 51,8 0,0
05/2019 9,5 14,2 21,6 19,2 19,5 24,1 31,6 22,1 46 64 82 1.000 1.010 1.019 S 5,8 62,9 10,0
04/2019 8,2 11,6 14,6 15,8 14,3 20,4 29,3 21,1 42 66 94 995 1.008 1.020 S 6,6 57,4 236,8
03/2019 6,6 9,1 13,7 14,7 13,8 20,7 28,9 22,3 35 58 91 1.005 1.018 1.025 S 5,6 54,2 56,1
02/2019 4,6 7,0 12,1 12,3 13,1 18,6 25,3 20,7 32 62 80 991 1.020 1.029 S 6,2 61,8 0,0
01/2019 1,7 6,8 14,1 11,4 12,8 17,4 21,4 19,7 34 58 81 998 1.014 1.025 ESE 7,1 65,1 4,1
12/2018 4,9 8,3 11,8 13,0 13,4 19,5 25,0 20,1 49 70 90 1.004 1.020 1.026 E 5,1 59,9 33,2
11/2018 6,3 11,5 16,9 15,1 14,4 19,6 25,6 19,3 42 69 93 996 1.010 1.018 ESE 5,6 66,6 117,0
Tots els anys disponibles
2018 -1,0 14,8 26,6 19,1 6,9 24,0 37,9 38,9 20 63 93 988 1.010 1.026 SSO 5,4 67,2 465,0
2017 0,9 14,4 26,7 19,0 9,2 23,7 36,3 35,4 19 58 91 988 1.017 1.033 S 0,0 75,0 851,9
Temperatura (°C)
Humitat relativa (%)
Velocitat del vent i ràfega màxima (km/h)
Direcció del vent (°)
Pressió (hPa)
Precipitació (mm)
Nota sobre les dades: s'avisa a l'usuari de la provisionalitat i no oficialitat d'aquestes dades
Logo AVAMET blanc
Web allotjada a Sollutia
Llicència de Creative CommonsLa web d'AVAMET i els seus continguts estan subjectes a una llicència de
Reconeixement - No Comercial - Compartir igual
Últimes estacions: Aielo de Malferit - Centre (Soci), Faura (Inforatge), Benifairó de les Valls (Inforatge), Xàbia - Les Valls (Soci), Xàbia - Alt de la Granadella (Soci), Villena - Sierra de Salinas (Soci), Sueca - Centre (Inforatge) - - -